Time;durP1;ratioP1;P1;durP2;ratioP2;P2;SDS_P1;SDS_P2;PMS_P1;PMS_P2;Temp;Humidity;BMP_temperature;BMP_pressure;BME280_temperature;BME280_humidity;BME280_pressure;Samples;Min_cycle;Max_cycle;Signal;HPM_P1;HPM_P2
2021/07/22 00:00:04;;;;;;;1999.90;999.90;;;20.40;99.90;;;;;;5054562;28;20184;-87
2021/07/22 00:02:38;;;;;;;1999.90;999.90;;;20.40;99.90;;;;;;5054349;28;20480;-87
2021/07/22 00:05:11;;;;;;;1999.90;999.90;;;20.40;99.90;;;;;;5053464;28;20395;-88
2021/07/22 00:08:02;;;;;;;1999.90;999.90;;;20.40;99.90;;;;;;5069315;28;20428;-87
2021/07/22 00:10:36;;;;;;;1999.90;999.90;;;20.30;99.90;;;;;;5056563;28;20418;-87
2021/07/22 00:13:11;;;;;;;1999.90;999.90;;;20.30;99.90;;;;;;5054947;28;20792;-87
2021/07/22 00:15:37;;;;;;;1999.90;999.90;;;20.30;99.90;;;;;;5069572;28;20790;-88
2021/07/22 00:18:22;;;;;;;1999.90;999.90;;;20.30;99.90;;;;;;5053645;28;20424;-87
2021/07/22 00:20:48;;;;;;;1999.90;999.90;;;20.30;99.90;;;;;;5053439;28;20792;-87
2021/07/22 00:23:17;;;;;;;1999.90;999.90;;;20.30;99.90;;;;;;5053068;28;20482;-87
2021/07/22 00:25:49;;;;;;;1999.90;999.90;;;20.30;99.90;;;;;;5053870;28;20387;-88
2021/07/22 00:28:15;;;;;;;1999.90;999.90;;;20.20;99.90;;;;;;5069192;28;20407;-87
2021/07/22 00:30:49;;;;;;;1999.90;999.90;;;20.20;99.90;;;;;;5053588;28;20383;-87
2021/07/22 00:33:25;;;;;;;1999.90;999.90;;;20.20;99.90;;;;;;5053481;28;20412;-87
2021/07/22 00:35:53;;;;;;;1999.90;999.90;;;20.20;99.90;;;;;;5053976;28;20418;-87
2021/07/22 00:38:56;;;;;;;1999.90;999.90;;;20.20;99.90;;;;;;5068952;28;20499;-87
2021/07/22 00:41:59;;;;;;;1999.90;999.90;;;20.20;99.90;;;;;;5060573;28;20420;-87
2021/07/22 00:44:28;;;;;;;1999.90;999.90;;;20.20;99.90;;;;;;5054013;28;20398;-87
2021/07/22 00:47:08;;;;;;;1999.90;999.90;;;20.10;99.90;;;;;;5053210;28;20925;-87
2021/07/22 00:49:44;;;;;;;1999.90;999.90;;;20.10;99.90;;;;;;5053409;28;20411;-87
2021/07/22 00:52:28;;;;;;;1999.90;999.90;;;20.00;99.90;;;;;;5053517;28;20391;-88
2021/07/22 00:55:13;;;;;;;1999.90;999.90;;;20.00;99.90;;;;;;5069681;28;20485;-87
2021/07/22 00:57:39;;;;;;;1999.90;999.90;;;19.90;99.90;;;;;;5068923;28;20439;-87
2021/07/22 01:00:54;;;;;;;1999.90;999.90;;;19.90;99.90;;;;;;5053208;28;20772;-87
2021/07/22 01:02:58;;;;;;;1999.90;999.90;;;19.90;99.90;;;;;;5053206;28;20429;-87
2021/07/22 01:05:51;;;;;;;1999.90;999.90;;;19.80;99.90;;;;;;5053167;28;20485;-87
2021/07/22 01:08:40;;;;;;;1999.90;999.90;;;19.80;99.90;;;;;;5053320;28;20920;-87
2021/07/22 01:11:14;;;;;;;1999.90;999.90;;;19.80;99.90;;;;;;5056554;28;20455;-87
2021/07/22 01:13:59;;;;;;;;;;;;;;;;;;;;;
2021/07/22 01:16:29;;;;;;;1999.90;999.90;;;19.70;99.90;;;;;;5057134;28;20945;-87
2021/07/22 01:19:16;;;;;;;1999.90;999.90;;;19.70;99.90;;;;;;5055678;28;20498;-87
2021/07/22 01:22:36;;;;;;;1999.90;999.90;;;19.70;99.90;;;;;;5057442;28;20523;-87
2021/07/22 01:25:09;;;;;;;1999.90;999.90;;;19.60;99.90;;;;;;5057093;28;21009;-88
2021/07/22 01:28:13;;;;;;;1999.90;999.90;;;19.60;99.90;;;;;;5056861;28;20886;-87
2021/07/22 01:30:42;;;;;;;1999.90;999.90;;;19.50;99.90;;;;;;4998036;28;20410;-88
2021/07/22 01:33:18;;;;;;;1999.90;999.90;;;19.50;99.90;;;;;;5056420;28;20797;-87
2021/07/22 01:35:44;;;;;;;1999.90;999.90;;;19.50;99.90;;;;;;5056137;28;20414;-88
2021/07/22 01:38:25;;;;;;;1999.90;999.90;;;19.50;99.90;;;;;;5055455;28;20420;-88
2021/07/22 01:41:14;;;;;;;1999.90;999.90;;;19.50;99.90;;;;;;5055245;28;20186;-88
2021/07/22 01:43:40;;;;;;;1999.90;999.90;;;19.50;99.90;;;;;;5072100;28;20494;-88
2021/07/22 01:46:45;;;;;;;1999.90;999.90;;;19.50;99.90;;;;;;5071621;28;20436;-88
2021/07/22 01:49:14;;;;;;;1999.90;999.90;;;19.50;99.90;;;;;;5072629;28;20791;-88
2021/07/22 01:52:16;;;;;;;1999.90;999.90;;;19.40;99.90;;;;;;5069145;28;20931;-88
2021/07/22 01:55:31;;;;;;;1999.90;999.90;;;19.40;99.90;;;;;;4995119;28;20443;-88
2021/07/22 02:01:57;;;;;;;1999.90;999.90;;;19.30;99.90;;;;;;5044824;28;20418;-88
2021/07/22 02:04:50;;;;;;;1999.90;999.90;;;19.30;99.90;;;;;;5071689;28;20419;-88
2021/07/22 02:07:23;;;;;;;1999.90;999.90;;;19.30;99.90;;;;;;5056397;28;20505;-88
2021/07/22 02:09:54;;;;;;;1999.90;999.90;;;19.20;99.90;;;;;;5055677;28;20391;-88
2021/07/22 02:12:46;;;;;;;1999.90;999.90;;;19.20;99.90;;;;;;5071808;28;20405;-88
2021/07/22 02:15:15;;;;;;;1999.90;999.90;;;19.20;99.90;;;;;;5071971;28;20408;-88
2021/07/22 02:18:39;;;;;;;;;;;;;;;;;;;;;
2021/07/22 02:25:32;;;;;;;;;;;;;;;;;;;;;
2021/07/22 02:28:09;;;;;;;1999.90;999.90;;;19.00;99.90;;;;;;4994935;28;20411;-88
2021/07/22 02:30:56;;;;;;;1999.90;999.90;;;19.00;99.90;;;;;;4994588;28;20422;-88
2021/07/22 02:33:30;;;;;;;1999.90;999.90;;;19.00;99.90;;;;;;4977551;28;20451;-87
2021/07/22 02:36:34;;;;;;;;;;;;;;;;;;;;;
2021/07/22 02:39:46;;;;;;;1999.90;999.90;;;19.00;99.90;;;;;;4994351;28;20838;-88
2021/07/22 02:42:40;;;;;;;1999.90;999.90;;;18.90;99.90;;;;;;4939628;29;20416;-88
2021/07/22 02:45:23;;;;;;;1999.90;999.90;;;18.90;99.90;;;;;;4955553;29;20412;-87
2021/07/22 02:48:12;;;;;;;1999.90;999.90;;;18.90;99.90;;;;;;4954944;29;20435;-88
2021/07/22 02:50:59;;;;;;;1999.90;999.90;;;18.80;99.90;;;;;;4964925;28;20952;-88
2021/07/22 02:53:49;;;;;;;1999.90;999.90;;;18.80;99.90;;;;;;5013666;28;20492;-88
2021/07/22 02:56:27;;;;;;;1999.90;999.90;;;18.80;99.90;;;;;;5012971;28;20520;-88
2021/07/22 03:02:18;;;;;;;1999.90;999.90;;;18.80;99.90;;;;;;5052918;28;20439;-88
2021/07/22 03:04:52;;;;;;;1999.90;999.90;;;18.70;99.90;;;;;;5053606;28;20411;-88
2021/07/22 03:08:36;;;;;;;;;;;;;;;;;;;;;
2021/07/22 03:14:08;;;;;;;;;;;;;;;;;;;;;
2021/07/22 03:17:12;;;;;;;1999.90;999.90;;;18.60;99.90;;;;;;5063579;28;20422;-88
2021/07/22 03:19:58;;;;;;;1999.90;999.90;;;18.60;99.90;;;;;;5044560;28;20455;-88
2021/07/22 03:22:39;;;;;;;1999.90;999.90;;;18.60;99.90;;;;;;5074907;28;20460;-88
2021/07/22 03:25:36;;;;;;;1999.90;999.90;;;18.50;99.90;;;;;;5056006;28;20419;-87
2021/07/22 03:28:26;;;;;;;1999.90;999.90;;;18.50;99.90;;;;;;5055529;28;20406;-88
2021/07/22 03:31:07;;;;;;;1999.90;999.90;;;18.50;99.90;;;;;;5074049;28;20422;-88
2021/07/22 03:33:40;;;;;;;1999.90;999.90;;;18.50;99.90;;;;;;5054262;28;20406;-88
2021/07/22 03:36:51;;;;;;;1999.90;999.90;;;18.40;99.90;;;;;;5056009;28;20437;-88
2021/07/22 03:40:29;;;;;;;1999.90;999.90;;;18.40;99.90;;;;;;5055561;28;20476;-88
2021/07/22 03:43:24;;;;;;;;;;;;;;;;;;;;;
2021/07/22 03:46:36;;;;;;;1999.90;999.90;;;18.40;99.90;;;;;;5073939;28;20928;-88
2021/07/22 03:49:24;;;;;;;1999.90;999.90;;;18.40;99.90;;;;;;5056465;28;20437;-88
2021/07/22 03:52:31;;;;;;;1999.90;999.90;;;18.40;99.90;;;;;;5050808;28;20445;-87
2021/07/22 03:55:21;;;;;;;1999.90;999.90;;;18.40;99.90;;;;;;5026670;28;20446;-87
2021/07/22 03:58:50;;;;;;;1999.90;999.90;;;18.30;99.90;;;;;;5041860;28;20509;-87
2021/07/22 04:05:10;;;;;;;1999.90;999.90;;;18.30;99.90;;;;;;5059604;28;20796;-87
2021/07/22 04:07:42;;;;;;;1999.90;999.90;;;18.30;99.90;;;;;;5056456;28;20446;-88
2021/07/22 04:10:57;;;;;;;;;;;;;;;;;;;;;
2021/07/22 04:14:13;;;;;;;1999.90;999.90;;;18.30;99.90;;;;;;5077876;28;20569;-88
2021/07/22 04:17:11;;;;;;;1999.90;999.90;;;18.30;99.90;;;;;;5073859;28;20796;-89
2021/07/22 04:26:15;;;;;;;1999.90;999.90;;;18.20;99.90;;;;;;5073195;28;20418;-87
2021/07/22 04:29:32;;;;;;;;;;;;;;;;;;;;;
2021/07/22 04:32:39;;;;;;;1999.90;999.90;;;18.00;99.90;;;;;;5073790;28;20414;-88
2021/07/22 04:35:47;;;;;;;1999.90;999.90;;;18.10;99.90;;;;;;5055954;28;20410;-88
2021/07/22 04:38:34;;;;;;;1999.90;999.90;;;18.20;99.90;;;;;;5017379;28;20826;-88
2021/07/22 04:41:29;;;;;;;1999.90;999.90;;;18.20;99.90;;;;;;5055767;28;20406;-88
2021/07/22 04:51:39;;;;;;;1999.90;999.90;;;18.30;99.90;;;;;;4993356;28;20418;-88
2021/07/22 04:54:20;;;;;;;1999.90;999.90;;;18.40;99.90;;;;;;5049728;28;20411;-87
2021/07/22 04:57:49;;;;;;;1999.90;999.90;;;18.40;99.90;;;;;;5055015;28;20455;-87
2021/07/22 05:00:35;;;;;;;1999.90;999.90;;;18.50;99.90;;;;;;4991047;28;20475;-87
2021/07/22 05:06:43;;;;;;;;;;;;;;;;;;;;;
2021/07/22 05:09:18;;;;;;;1999.90;999.90;;;18.80;99.90;;;;;;4915130;29;20909;-88
2021/07/22 05:12:02;;;;;;;;;;;;;;;;;;;;;
2021/07/22 05:15:00;;;;;;;1999.90;999.90;;;18.90;99.90;;;;;;4956266;28;20432;-87
2021/07/22 05:24:05;;;;;;;1999.90;999.90;;;19.00;99.90;;;;;;4913882;28;20883;-87
2021/07/22 05:26:49;;;;;;;1999.90;999.90;;;19.00;99.90;;;;;;5063254;28;20505;-87
2021/07/22 05:29:32;;;;;;;1999.90;999.90;;;19.10;99.90;;;;;;5056146;28;20473;-88
2021/07/22 05:32:10;;;;;;;1999.90;999.90;;;19.00;99.90;;;;;;5073899;28;20873;-87
2021/07/22 05:34:42;;;;;;;1999.90;999.90;;;19.10;99.90;;;;;;5073503;28;20517;-87
2021/07/22 05:37:10;;;;;;;1999.90;999.90;;;19.10;99.90;;;;;;5055548;28;20429;-87
2021/07/22 05:39:39;;;;;;;1999.90;999.90;;;19.00;99.90;;;;;;5055092;28;20461;-87
2021/07/22 05:42:25;;;;;;;1999.90;999.90;;;19.00;99.90;;;;;;5055333;28;20410;-88
2021/07/22 05:44:54;;;;;;;1999.90;999.90;;;19.00;99.90;;;;;;5055461;28;20421;-87
2021/07/22 05:47:31;;;;;;;1999.90;999.90;;;19.00;99.90;;;;;;5072704;28;20479;-88
2021/07/22 05:50:03;;;;;;;1999.90;999.90;;;18.90;99.90;;;;;;5073146;28;20389;-87
2021/07/22 05:52:33;;;;;;;1999.90;999.90;;;19.00;99.90;;;;;;5054798;28;20434;-87
2021/07/22 05:55:02;;;;;;;1999.90;999.90;;;19.00;99.90;;;;;;5055904;28;20411;-87
2021/07/22 06:09:13;;;;;;;1999.90;999.90;;;19.10;99.90;;;;;;4937019;29;20428;-88
2021/07/22 06:16:02;;;;;;;;;;;;;;;;;;;;;
2021/07/22 06:18:45;;;;;;;1999.90;999.90;;;19.30;99.90;;;;;;4921998;28;20504;-87
2021/07/22 06:28:31;;;;;;;1999.90;999.90;;;19.60;99.90;;;;;;4986388;28;20577;-87
2021/07/22 06:31:40;;;;;;;1999.90;999.90;;;19.70;99.90;;;;;;4955455;28;20456;-88
2021/07/22 06:46:03;;;;;;;1999.90;999.90;;;19.90;99.90;;;;;;4840165;29;20964;-87
2021/07/22 06:51:52;;;;;;;1999.90;999.90;;;19.90;99.90;;;;;;4852680;29;20481;-87
2021/07/22 06:54:19;;;;;;;1999.90;999.90;;;20.00;99.90;;;;;;4891655;29;20409;-87
2021/07/22 06:56:48;;;;;;;1999.90;999.90;;;20.00;99.90;;;;;;4977656;28;20718;-87
2021/07/22 06:59:14;;;;;;;1999.90;999.90;;;20.00;99.90;;;;;;5055493;28;20445;-87
2021/07/22 07:01:43;;;;;;;1999.90;999.90;;;20.00;99.90;;;;;;5058674;28;20403;-87
2021/07/22 07:04:11;;;;;;;1999.90;999.90;;;20.00;99.90;;;;;;5058858;28;20402;-87
2021/07/22 07:07:01;;;;;;;1999.90;999.90;;;20.00;99.90;;;;;;5074395;28;20902;-87
2021/07/22 07:09:30;;;;;;;1999.90;999.90;;;20.20;99.90;;;;;;5075778;28;20383;-87
2021/07/22 07:11:58;;;;;;;1999.90;999.90;;;20.20;99.90;;;;;;5057493;28;20456;-88
2021/07/22 07:14:27;;;;;;;1999.90;999.90;;;20.40;99.90;;;;;;5075233;28;20469;-88
2021/07/22 07:17:04;;;;;;;1999.90;999.90;;;20.50;99.90;;;;;;5075396;28;20753;-88
2021/07/22 07:19:42;;;;;;;1999.90;999.90;;;20.50;99.90;;;;;;5056867;28;20560;-88
2021/07/22 07:22:21;;;;;;;;;;;;;;;;;;;;;
2021/07/22 07:24:47;;;;;;;1999.90;999.90;;;20.70;99.90;;;;;;5075059;28;20391;-87
2021/07/22 07:27:18;;;;;;;1999.90;999.90;;;20.70;99.90;;;;;;5075157;28;20489;-88
2021/07/22 07:29:57;;;;;;;1999.90;999.90;;;20.70;99.90;;;;;;5075251;28;20490;-87
2021/07/22 07:33:10;;;;;;;;;;;;;;;;;;;;;
2021/07/22 07:35:46;;;;;;;1999.90;999.90;;;20.70;99.90;;;;;;5074037;28;20409;-87
2021/07/22 07:38:12;;;;;;;1999.90;999.90;;;20.90;99.90;;;;;;5057673;28;20438;-88
2021/07/22 07:40:47;;;;;;;1999.90;999.90;;;21.00;99.90;;;;;;5074339;28;20485;-88
2021/07/22 07:43:19;;;;;;;1999.90;999.90;;;21.10;99.90;;;;;;5057111;28;20622;-87
2021/07/22 07:45:46;;;;;;;1999.90;999.90;;;21.00;99.90;;;;;;5074878;28;20818;-88
2021/07/22 07:48:39;;;;;;;1999.90;999.90;;;21.10;99.90;;;;;;5057795;28;20508;-87
2021/07/22 07:51:08;;;;;;;1999.90;999.90;;;21.00;99.90;;;;;;5056439;28;20456;-88
2021/07/22 07:53:37;;;;;;;1999.90;999.90;;;20.90;99.90;;;;;;5056281;28;20410;-88
2021/07/22 07:56:06;;;;;;;1999.90;999.90;;;20.80;99.90;;;;;;5056472;28;20433;-88
2021/07/22 07:58:31;;;;;;;1999.90;999.90;;;20.90;99.90;;;;;;5056022;28;20410;-87
2021/07/22 08:01:00;;;;;;;1999.90;999.90;;;20.90;99.90;;;;;;5056847;28;20465;-87
2021/07/22 08:03:27;;;;;;;1999.90;999.90;;;20.90;99.90;;;;;;5056460;28;20415;-87
2021/07/22 08:05:53;;;;;;;1999.90;999.90;;;20.90;99.90;;;;;;5057194;28;20425;-88
2021/07/22 08:08:23;;;;;;;1999.90;999.90;;;20.90;99.90;;;;;;5075919;28;20402;-87
2021/07/22 08:10:57;;;;;;;1999.90;999.90;;;20.90;99.90;;;;;;5058307;28;20456;-88
2021/07/22 08:13:22;;;;;;;1999.90;999.90;;;20.90;99.90;;;;;;5075799;28;20384;-87
2021/07/22 08:15:48;;;;;;;1999.90;999.90;;;21.00;99.90;;;;;;5057499;28;20456;-88
2021/07/22 08:22:25;;;;;;;;;;;;;;;;;;;;;
2021/07/22 08:24:49;;;;;;;1999.90;999.90;;;21.30;99.90;;;;;;5013360;28;20406;-87
2021/07/22 08:27:31;;;;;;;1999.90;999.90;;;21.30;99.90;;;;;;5074443;28;20417;-87
2021/07/22 08:29:57;;;;;;;1999.90;999.90;;;21.40;99.90;;;;;;5057242;28;20402;-88
2021/07/22 08:32:26;;;;;;;1999.90;999.90;;;21.50;99.90;;;;;;5074399;28;20424;-87
2021/07/22 08:34:55;;;;;;;1999.90;999.90;;;21.60;99.90;;;;;;5056400;28;20406;-87
2021/07/22 08:37:28;;;;;;;1999.90;999.90;;;21.60;99.90;;;;;;5075087;28;20411;-87
2021/07/22 08:39:57;;;;;;;1999.90;999.90;;;21.70;99.90;;;;;;5058414;28;20452;-87
2021/07/22 08:42:30;;;;;;;1999.90;999.90;;;21.80;99.90;;;;;;5074787;28;20402;-87
2021/07/22 08:45:00;;;;;;;1999.90;999.90;;;21.80;99.90;;;;;;5055984;28;20399;-87
2021/07/22 08:47:35;;;;;;;1999.90;999.90;;;22.00;99.90;;;;;;5074158;28;20451;-88
2021/07/22 08:50:05;;;;;;;1999.90;999.90;;;22.10;99.90;;;;;;5055706;28;20962;-87
2021/07/22 08:52:31;;;;;;;1999.90;999.90;;;22.30;99.90;;;;;;5056588;28;20452;-87
2021/07/22 08:55:05;;;;;;;1999.90;999.90;;;22.30;99.90;;;;;;5074286;28;20402;-87
2021/07/22 08:57:43;;;;;;;1999.90;999.90;;;22.30;99.90;;;;;;5074126;28;20258;-87
2021/07/22 09:00:12;;;;;;;1999.90;999.90;;;22.20;99.90;;;;;;5056385;28;20528;-88
2021/07/22 09:02:38;;;;;;;1999.90;999.90;;;22.30;99.90;;;;;;5056693;28;20476;-87
2021/07/22 09:05:09;;;;;;;1999.90;999.90;;;22.40;99.90;;;;;;5056451;28;20881;-87
2021/07/22 09:07:52;;;;;;;1999.90;999.90;;;22.40;99.90;;;;;;5056965;28;20513;-87
2021/07/22 09:10:33;;;;;;;1999.90;999.90;;;22.50;99.90;;;;;;5056280;28;20422;-87
2021/07/22 09:12:59;;;;;;;1999.90;999.90;;;22.60;99.90;;;;;;5144334;22;21015;-87
2021/07/22 09:15:27;;;;;;;1999.90;999.90;;;22.60;98.40;;;;;;5072889;28;20472;-87
2021/07/22 09:17:54;;;;;;;1999.90;999.90;;;22.60;98.90;;;;;;5092607;28;20180;-87
2021/07/22 09:20:37;;;;;;;1999.90;999.90;;;22.70;99.20;;;;;;5093560;28;20574;-86
2021/07/22 09:23:05;;;;;;;1999.90;999.90;;;22.70;96.00;;;;;;5093601;28;20443;-87
2021/07/22 09:25:40;;;;;;;1999.90;999.90;;;22.80;96.20;;;;;;5092170;28;20474;-87
2021/07/22 09:28:06;;;;;;;1999.90;999.90;;;22.90;98.10;;;;;;5092480;28;20397;-87
2021/07/22 09:30:32;;;;;;;1999.90;999.90;;;23.00;97.00;;;;;;5096073;28;20401;-87
2021/07/22 09:32:57;;;;;;;1999.90;999.90;;;23.10;96.80;;;;;;5098619;28;20423;-87
2021/07/22 09:35:24;;;;;;;1999.90;999.90;;;23.20;95.60;;;;;;5097588;28;20403;-87
2021/07/22 09:37:52;;;;;;;1999.90;999.90;;;23.40;96.80;;;;;;5097040;28;20183;-87
2021/07/22 09:40:27;;;;;;;1999.90;999.90;;;23.30;93.10;;;;;;5096084;28;20498;-87
2021/07/22 09:42:55;;;;;;;1999.90;999.90;;;23.10;95.00;;;;;;5095831;28;20821;-86
2021/07/22 09:45:25;;;;;;;1999.90;999.90;;;23.30;98.70;;;;;;5096778;28;20444;-86
2021/07/22 09:47:52;;;;;;;1999.90;999.90;;;23.60;94.30;;;;;;5096612;28;20413;-87
2021/07/22 09:50:22;;;;;;;1999.90;999.90;;;23.70;90.90;;;;;;5096430;28;20519;-88
2021/07/22 09:53:04;;;;;;;1999.90;999.90;;;23.90;90.40;;;;;;5096181;28;20401;-87
2021/07/22 09:55:32;;;;;;;1999.90;999.90;;;24.00;83.00;;;;;;5095653;28;20393;-87
2021/07/22 09:58:02;;;;;;;1999.90;999.90;;;24.10;76.80;;;;;;5097114;28;20771;-87
2021/07/22 10:00:30;;;;;;;1999.90;999.90;;;24.40;77.20;;;;;;5097256;28;20442;-87
2021/07/22 10:03:00;;;;;;;1999.90;999.90;;;24.80;72.30;;;;;;5097104;28;20391;-87
2021/07/22 10:05:36;;;;;;;1999.90;999.90;;;25.00;53.80;;;;;;5096878;28;20391;-87
2021/07/22 10:08:03;;;;;;;1999.90;999.90;;;25.10;50.40;;;;;;5096547;28;20390;-88
2021/07/22 10:10:29;;;;;;;1999.90;999.90;;;24.90;49.50;;;;;;5096507;28;20806;-87
2021/07/22 10:13:01;;;;;;;1999.90;999.90;;;25.00;38.80;;;;;;5095029;28;20441;-88
2021/07/22 10:15:35;;;;;;;1999.90;999.90;;;25.00;31.50;;;;;;5096196;28;20807;-88
2021/07/22 10:18:01;;;;;;;1999.90;999.90;;;25.10;31.80;;;;;;5096498;28;20380;-88
2021/07/22 10:20:29;;;;;;;1999.90;999.90;;;25.10;25.50;;;;;;5096016;28;20443;-87
2021/07/22 10:22:56;;;;;;;1999.90;999.90;;;25.20;22.90;;;;;;5096060;28;20403;-89
2021/07/22 10:25:22;;;;;;;1999.90;999.90;;;25.00;24.10;;;;;;5095863;28;20785;-87
2021/07/22 10:27:48;;;;;;;1999.90;999.90;;;25.00;26.80;;;;;;5095755;28;20421;-87
2021/07/22 10:30:19;;;;;;;1999.90;999.90;;;24.80;34.60;;;;;;5095812;28;20481;-88
2021/07/22 10:32:49;;;;;;;1999.90;999.90;;;24.70;43.40;;;;;;5095717;28;20883;-88
2021/07/22 10:35:31;;;;;;;1999.90;999.90;;;24.60;44.40;;;;;;5095733;28;20460;-88
2021/07/22 10:38:20;;;;;;;1999.90;999.90;;;24.70;62.50;;;;;;5095290;28;20520;-88
2021/07/22 10:40:47;;;;;;;1999.90;999.90;;;24.80;59.40;;;;;;5095168;28;20463;-88
2021/07/22 10:43:46;;;;;;;1999.90;999.90;;;24.80;51.80;;;;;;5093716;28;20417;-88
2021/07/22 10:46:17;;;;;;;1999.90;999.90;;;24.90;54.60;;;;;;5095897;28;20419;-88
2021/07/22 10:48:47;;;;;;;1999.90;999.90;;;24.90;53.70;;;;;;5095257;28;20397;-88
2021/07/22 10:51:18;;;;;;;1999.90;999.90;;;24.80;52.50;;;;;;5095898;28;20906;-88
2021/07/22 10:53:44;;;;;;;1999.90;999.90;;;24.80;53.10;;;;;;5095412;28;20986;-87
2021/07/22 10:56:16;;;;;;;1999.90;999.90;;;24.90;52.40;;;;;;5094493;28;20514;-88
2021/07/22 10:58:41;;;;;;;1999.90;999.90;;;24.80;51.30;;;;;;5095779;28;20161;-87
2021/07/22 11:01:08;;;;;;;1999.90;999.90;;;24.80;52.60;;;;;;5095484;28;20465;-87
2021/07/22 11:03:36;;;;;;;1999.90;999.90;;;24.80;57.40;;;;;;5095648;28;20156;-87
2021/07/22 11:06:10;;;;;;;1999.90;999.90;;;24.80;50.70;;;;;;5095442;28;20788;-88
2021/07/22 11:08:37;;;;;;;1999.90;999.90;;;25.00;53.80;;;;;;5095951;28;20377;-87
2021/07/22 11:11:14;;;;;;;1999.90;999.90;;;25.30;50.30;;;;;;5093889;28;20426;-88
2021/07/22 11:13:45;;;;;;;1999.90;999.90;;;25.40;36.40;;;;;;5094226;28;20427;-88
2021/07/22 11:16:31;;;;;;;1999.90;999.90;;;25.70;39.30;;;;;;5095323;28;20431;-87
2021/07/22 11:19:13;;;;;;;1999.90;999.90;;;25.80;31.90;;;;;;5093941;28;20436;-87
2021/07/22 11:21:47;;;;;;;1999.90;999.90;;;25.90;33.90;;;;;;5093787;28;20444;-87
2021/07/22 11:24:16;;;;;;;1999.90;999.90;;;26.00;43.00;;;;;;5095066;28;20389;-87
2021/07/22 11:26:43;;;;;;;1999.90;999.90;;;25.80;28.80;;;;;;5095155;28;20516;-87
2021/07/22 11:29:10;;;;;;;1999.90;999.90;;;25.50;29.90;;;;;;5095281;28;20428;-88
2021/07/22 11:31:40;;;;;;;1999.90;999.90;;;25.70;23.20;;;;;;5094989;28;20431;-87
2021/07/22 11:34:09;;;;;;;1999.90;999.90;;;25.60;21.10;;;;;;5094914;28;20401;-87
2021/07/22 11:36:35;;;;;;;1999.90;999.90;;;25.60;24.60;;;;;;5094954;28;20436;-87
2021/07/22 11:39:05;;;;;;;1999.90;999.90;;;25.60;25.30;;;;;;5094833;28;20412;-87
2021/07/22 11:41:30;;;;;;;1999.90;999.90;;;25.60;23.20;;;;;;5094491;28;20417;-87
2021/07/22 11:44:02;;;;;;;1999.90;999.90;;;25.70;21.80;;;;;;5093226;28;20411;-87
2021/07/22 11:46:39;;;;;;;1999.90;999.90;;;25.60;18.20;;;;;;5095199;28;20199;-87
2021/07/22 11:49:09;;;;;;;1999.90;999.90;;;25.80;23.20;;;;;;5094167;28;20409;-87
2021/07/22 11:51:36;;;;;;;1999.90;999.90;;;25.90;59.90;;;;;;5094474;28;20903;-87
2021/07/22 11:54:02;;;;;;;1999.90;999.90;;;26.00;57.80;;;;;;5093351;28;20417;-86
2021/07/22 11:56:33;;;;;;;1999.90;999.90;;;26.50;45.10;;;;;;5093018;28;20956;-86
2021/07/22 11:58:59;;;;;;;1999.90;999.90;;;27.00;33.00;;;;;;5094259;28;20402;-86
2021/07/22 12:01:25;;;;;;;1999.90;999.90;;;27.10;28.20;;;;;;5092738;28;20452;-86
2021/07/22 12:03:51;;;;;;;1999.90;999.90;;;27.20;27.50;;;;;;5092594;28;20445;-86
2021/07/22 12:06:23;;;;;;;1999.90;999.90;;;27.50;25.00;;;;;;5093847;28;20183;-86
2021/07/22 12:09:06;;;;;;;1999.90;999.90;;;27.30;19.40;;;;;;5092565;28;20645;-87
2021/07/22 12:11:50;;;;;;;1999.90;999.90;;;27.30;28.10;;;;;;5092509;28;20421;-86
2021/07/22 12:14:29;;;;;;;1999.90;999.90;;;27.20;17.60;;;;;;5093597;28;20467;-87
2021/07/22 12:16:58;;;;;;;1999.90;999.90;;;27.30;16.80;;;;;;5093578;28;20912;-87
2021/07/22 12:19:25;;;;;;;1999.90;999.90;;;27.50;17.70;;;;;;5092686;28;20907;-87
2021/07/22 12:22:24;;;;;;;1999.90;999.90;;;27.70;14.60;;;;;;5093291;28;20413;-87
2021/07/22 12:25:09;;;;;;;1999.90;999.90;;;27.80;6.90;;;;;;5093685;28;20826;-87
2021/07/22 12:27:43;;;;;;;1999.90;999.90;;;27.60;4.10;;;;;;5092380;28;20421;-87
2021/07/22 12:30:34;;;;;;;1999.90;999.90;;;27.50;1.00;;;;;;5093515;28;20421;-87
2021/07/22 12:33:01;;;;;;;1999.90;999.90;;;27.40;3.60;;;;;;5093692;28;20385;-87
2021/07/22 12:35:34;;;;;;;1999.90;999.90;;;27.40;1.50;;;;;;5093938;28;20884;-87
2021/07/22 12:38:06;;;;;;;1999.90;999.90;;;27.30;2.00;;;;;;5092175;28;20859;-87
2021/07/22 12:40:54;;;;;;;1999.90;999.90;;;27.10;1.00;;;;;;5093631;28;20452;-87
2021/07/22 12:43:22;;;;;;;1999.90;999.90;;;27.20;2.90;;;;;;5093594;28;20383;-87
2021/07/22 12:45:49;;;;;;;1999.90;999.90;;;27.10;1.00;;;;;;5091076;28;20416;-87
2021/07/22 12:48:15;;;;;;;1999.90;999.90;;;27.00;1.00;;;;;;5093969;28;20409;-87
2021/07/22 12:50:46;;;;;;;1999.90;999.90;;;26.70;1.00;;;;;;5092012;28;20474;-87
2021/07/22 12:53:18;;;;;;;1999.90;999.90;;;26.60;1.10;;;;;;5093283;28;20389;-87
2021/07/22 12:55:44;;;;;;;1999.90;999.90;;;26.40;1.50;;;;;;5093352;28;20538;-86
2021/07/22 12:58:40;;;;;;;1999.90;999.90;;;26.60;4.70;;;;;;5093174;28;20405;-87
2021/07/22 13:01:08;;;;;;;1999.90;999.90;;;27.00;5.80;;;;;;5088039;28;20476;-87
2021/07/22 13:03:35;;;;;;;1999.90;999.90;;;27.20;4.20;;;;;;5093485;28;20409;-86
2021/07/22 13:06:02;;;;;;;1999.90;999.90;;;27.50;2.70;;;;;;5096645;28;20482;-86
2021/07/22 13:08:28;;;;;;;1999.90;999.90;;;27.70;5.50;;;;;;5097406;28;20398;-86
2021/07/22 13:10:53;;;;;;;1999.90;999.90;;;27.80;6.10;;;;;;5097244;28;20917;-86
2021/07/22 13:13:19;;;;;;;1999.90;999.90;;;28.00;1.00;;;;;;5097074;28;20182;-86
2021/07/22 13:15:45;;;;;;;1999.90;999.90;;;28.10;1.00;;;;;;5097015;28;20171;-86
2021/07/22 13:18:11;;;;;;;1999.90;999.90;;;28.10;1.00;;;;;;5097193;28;20481;-87
2021/07/22 13:20:37;;;;;;;1999.90;999.90;;;28.00;1.00;;;;;;5097245;28;20236;-87
2021/07/22 13:23:02;;;;;;;1999.90;999.90;;;28.00;1.00;;;;;;5097475;28;20526;-87
2021/07/22 13:25:29;;;;;;;1999.90;999.90;;;28.40;1.00;;;;;;5097292;28;20232;-86
2021/07/22 13:27:54;;;;;;;1999.90;999.90;;;28.40;1.00;;;;;;5096833;28;20236;-86
2021/07/22 13:30:20;;;;;;;1999.90;999.90;;;28.50;1.00;;;;;;5097147;28;20405;-86
2021/07/22 13:32:47;;;;;;;1999.90;999.90;;;28.40;1.00;;;;;;5096840;28;20224;-87
2021/07/22 13:35:13;;;;;;;1999.90;999.90;;;28.10;1.00;;;;;;5097541;28;20166;-87
2021/07/22 13:37:40;;;;;;;1999.90;999.90;;;28.00;1.00;;;;;;5095397;28;20425;-86
2021/07/22 13:40:10;;;;;;;1999.90;999.90;;;27.90;1.00;;;;;;5096186;28;20449;-86
2021/07/22 13:42:37;;;;;;;1999.90;999.90;;;27.70;1.00;;;;;;5096642;28;20888;-87
2021/07/22 13:45:04;;;;;;;1999.90;999.90;;;27.60;1.00;;;;;;5096544;28;20405;-86
2021/07/22 13:47:30;;;;;;;1999.90;999.90;;;27.50;1.00;;;;;;5096424;28;20441;-86
2021/07/22 13:49:55;;;;;;;1999.90;999.90;;;27.40;1.00;;;;;;5096473;28;20448;-86
2021/07/22 13:52:21;;;;;;;1999.90;999.90;;;27.40;1.00;;;;;;5096467;28;20216;-86
2021/07/22 13:54:47;;;;;;;1999.90;999.90;;;27.50;1.00;;;;;;5096413;28;20185;-86
2021/07/22 13:57:13;;;;;;;1999.90;999.90;;;27.80;1.00;;;;;;5096271;28;20822;-86
2021/07/22 13:59:39;;;;;;;1999.90;999.90;;;28.10;1.00;;;;;;5096195;28;20648;-86
2021/07/22 14:02:05;;;;;;;1999.90;999.90;;;28.30;1.00;;;;;;5096240;28;20163;-86
2021/07/22 14:04:31;;;;;;;1999.90;999.90;;;28.40;1.00;;;;;;5096476;28;20573;-86
2021/07/22 14:06:57;;;;;;;1999.90;999.90;;;28.40;1.00;;;;;;5094863;28;20508;-86
2021/07/22 14:09:23;;;;;;;1999.90;999.90;;;28.40;1.00;;;;;;5094852;28;21003;-86
2021/07/22 14:11:49;;;;;;;1999.90;999.90;;;28.00;1.00;;;;;;5096087;28;20246;-86
2021/07/22 14:14:14;;;;;;;1999.90;999.90;;;27.70;1.00;;;;;;5095924;28;20453;-86
2021/07/22 14:16:40;;;;;;;1999.90;999.90;;;27.50;1.00;;;;;;5095701;28;20218;-86
2021/07/22 14:19:06;;;;;;;1999.90;999.90;;;27.40;1.00;;;;;;5096137;28;20167;-86
2021/07/22 14:21:33;;;;;;;1999.90;999.90;;;27.20;1.00;;;;;;5095821;28;20191;-86
2021/07/22 14:23:58;;;;;;;1999.90;999.90;;;27.20;1.00;;;;;;5094550;28;20270;-86
2021/07/22 14:26:25;;;;;;;1999.90;999.90;;;26.90;1.00;;;;;;5095808;28;20441;-86
2021/07/22 14:28:55;;;;;;;1999.90;999.90;;;26.80;1.00;;;;;;5096329;28;20212;-86